Terminal Aerodrome Forecast
Issued by NWS Quad Cities IA IL

Home | Current Version | Previous Version | Text Only | Print | Product List | Glossary On
Versions: 1 2 3 4 5 6 7 8 9 10 11 12 13 14 15 16 17 18 19 20 21
000
FTUS43 KDVN 241700
TAFMLI
TAF
KMLI 241731Z 2418/2518 16016KT P6SM VCTS BKN060CB
     FM242000 15017KT 4SM -RA OVC035
     FM250400 31011KT P6SM VCSH SCT035 BKN060
     FM250600 29009KT P6SM SKC=

USA.gov is the U.S. government's official web portal to all federal, state and local government web resources and services.